sensor_id;sensor_type;location;lat;lon;timestamp;temperature;humidity
32753;DHT22;19121;52.428;10.816;2023-10-08T00:01:15;21.20;57.30
32753;DHT22;19121;52.428;10.816;2023-10-08T00:03:44;21.20;57.40
32753;DHT22;19121;52.428;10.816;2023-10-08T00:06:19;21.20;57.40
32753;DHT22;19121;52.428;10.816;2023-10-08T00:08:45;21.20;57.40
32753;DHT22;19121;52.428;10.816;2023-10-08T00:11:11;21.20;57.40
32753;DHT22;19121;52.428;10.816;2023-10-08T00:13:36;21.20;57.40
32753;DHT22;19121;52.428;10.816;2023-10-08T00:16:06;21.20;57.40
32753;DHT22;19121;52.428;10.816;2023-10-08T00:18:35;21.20;57.40
32753;DHT22;19121;52.428;10.816;2023-10-08T00:21:01;21.20;57.40
32753;DHT22;19121;52.428;10.816;2023-10-08T00:23:35;21.20;57.40
32753;DHT22;19121;52.428;10.816;2023-10-08T00:26:01;21.20;57.40
32753;DHT22;19121;52.428;10.816;2023-10-08T00:28:31;21.20;58.00
32753;DHT22;19121;52.428;10.816;2023-10-08T00:30:57;21.20;57.40
32753;DHT22;19121;52.428;10.816;2023-10-08T00:33:23;21.10;57.40
32753;DHT22;19121;52.428;10.816;2023-10-08T00:35:49;21.20;57.40
32753;DHT22;19121;52.428;10.816;2023-10-08T00:38:15;21.10;57.40
32753;DHT22;19121;52.428;10.816;2023-10-08T00:40:41;21.10;57.40
32753;DHT22;19121;52.428;10.816;2023-10-08T00:43:28;21.10;57.40
32753;DHT22;19121;52.428;10.816;2023-10-08T00:45:54;21.10;57.40
32753;DHT22;19121;52.428;10.816;2023-10-08T00:48:19;21.10;57.40
32753;DHT22;19121;52.428;10.816;2023-10-08T00:50:53;21.10;57.40
32753;DHT22;19121;52.428;10.816;2023-10-08T00:53:34;21.10;57.40
32753;DHT22;19121;52.428;10.816;2023-10-08T00:56:04;21.10;57.40
32753;DHT22;19121;52.428;10.816;2023-10-08T00:58:38;21.10;57.40
32753;DHT22;19121;52.428;10.816;2023-10-08T01:01:03;21.10;57.40
32753;DHT22;19121;52.428;10.816;2023-10-08T01:03:30;21.10;57.40
32753;DHT22;19121;52.428;10.816;2023-10-08T01:06:00;21.10;57.40
32753;DHT22;19121;52.428;10.816;2023-10-08T01:08:28;21.10;57.40
32753;DHT22;19121;52.428;10.816;2023-10-08T01:11:22;21.10;57.40
32753;DHT22;19121;52.428;10.816;2023-10-08T01:13:56;21.10;57.40
32753;DHT22;19121;52.428;10.816;2023-10-08T01:16:24;21.10;57.50
32753;DHT22;19121;52.428;10.816;2023-10-08T01:18:52;21.10;57.40
32753;DHT22;19121;52.428;10.816;2023-10-08T01:21:19;21.10;57.40
32753;DHT22;19121;52.428;10.816;2023-10-08T01:24:00;21.10;57.50
32753;DHT22;19121;52.428;10.816;2023-10-08T01:26:26;21.10;57.40
32753;DHT22;19121;52.428;10.816;2023-10-08T01:28:55;21.10;57.40
32753;DHT22;19121;52.428;10.816;2023-10-08T01:31:21;21.10;57.50
32753;DHT22;19121;52.428;10.816;2023-10-08T01:33:46;21.10;57.40
32753;DHT22;19121;52.428;10.816;2023-10-08T01:36:25;21.10;57.40
32753;DHT22;19121;52.428;10.816;2023-10-08T01:38:51;21.00;57.40
32753;DHT22;19121;52.428;10.816;2023-10-08T01:41:17;21.00;57.40
32753;DHT22;19121;52.428;10.816;2023-10-08T01:43:45;21.00;57.40
32753;DHT22;19121;52.428;10.816;2023-10-08T01:46:11;21.00;57.40
32753;DHT22;19121;52.428;10.816;2023-10-08T01:48:40;21.00;57.40
32753;DHT22;19121;52.428;10.816;2023-10-08T01:51:07;21.00;57.40
32753;DHT22;19121;52.428;10.816;2023-10-08T01:53:39;21.00;57.40
32753;DHT22;19121;52.428;10.816;2023-10-08T01:56:05;21.00;57.40
32753;DHT22;19121;52.428;10.816;2023-10-08T01:58:30;21.00;57.40
32753;DHT22;19121;52.428;10.816;2023-10-08T02:00:56;21.00;57.40
32753;DHT22;19121;52.428;10.816;2023-10-08T02:03:25;21.00;57.40
32753;DHT22;19121;52.428;10.816;2023-10-08T02:05:50;21.00;57.40
32753;DHT22;19121;52.428;10.816;2023-10-08T02:08:18;21.00;57.40
32753;DHT22;19121;52.428;10.816;2023-10-08T02:10:44;20.90;57.40
32753;DHT22;19121;52.428;10.816;2023-10-08T02:13:13;20.90;57.40
32753;DHT22;19121;52.428;10.816;2023-10-08T02:15:45;21.00;57.40
32753;DHT22;19121;52.428;10.816;2023-10-08T02:18:11;21.00;57.50
32753;DHT22;19121;52.428;10.816;2023-10-08T02:20:38;20.90;57.40
32753;DHT22;19121;52.428;10.816;2023-10-08T02:23:04;20.90;57.30
32753;DHT22;19121;52.428;10.816;2023-10-08T02:25:30;20.90;57.40
32753;DHT22;19121;52.428;10.816;2023-10-08T02:27:56;20.90;57.40
32753;DHT22;19121;52.428;10.816;2023-10-08T02:30:23;20.90;57.40
32753;DHT22;19121;52.428;10.816;2023-10-08T02:32:48;20.90;58.00
32753;DHT22;19121;52.428;10.816;2023-10-08T02:35:14;20.90;57.40
32753;DHT22;19121;52.428;10.816;2023-10-08T02:37:40;20.90;57.30
32753;DHT22;19121;52.428;10.816;2023-10-08T02:40:06;20.90;57.40
32753;DHT22;19121;52.428;10.816;2023-10-08T02:42:39;20.90;57.40
32753;DHT22;19121;52.428;10.816;2023-10-08T02:45:07;20.90;57.40
32753;DHT22;19121;52.428;10.816;2023-10-08T02:47:42;20.90;57.40
32753;DHT22;19121;52.428;10.816;2023-10-08T02:50:11;20.90;57.40
32753;DHT22;19121;52.428;10.816;2023-10-08T02:52:36;20.90;57.40
32753;DHT22;19121;52.428;10.816;2023-10-08T02:55:01;20.90;57.40
32753;DHT22;19121;52.428;10.816;2023-10-08T02:57:27;20.90;57.40
32753;DHT22;19121;52.428;10.816;2023-10-08T02:59:55;20.90;57.40
32753;DHT22;19121;52.428;10.816;2023-10-08T03:02:20;20.90;57.40
32753;DHT22;19121;52.428;10.816;2023-10-08T03:04:51;20.90;57.40
32753;DHT22;19121;52.428;10.816;2023-10-08T03:07:18;20.80;57.40
32753;DHT22;19121;52.428;10.816;2023-10-08T03:09:49;20.90;57.40
32753;DHT22;19121;52.428;10.816;2023-10-08T03:12:16;20.80;57.40
32753;DHT22;19121;52.428;10.816;2023-10-08T03:14:42;20.80;57.40
32753;DHT22;19121;52.428;10.816;2023-10-08T03:17:14;20.80;57.40
32753;DHT22;19121;52.428;10.816;2023-10-08T03:19:45;20.80;57.30
32753;DHT22;19121;52.428;10.816;2023-10-08T03:22:11;20.80;57.40
32753;DHT22;19121;52.428;10.816;2023-10-08T03:24:37;20.80;57.30
32753;DHT22;19121;52.428;10.816;2023-10-08T03:27:03;20.80;57.30
32753;DHT22;19121;52.428;10.816;2023-10-08T03:29:40;20.80;57.40
32753;DHT22;19121;52.428;10.816;2023-10-08T03:32:07;20.80;57.40
32753;DHT22;19121;52.428;10.816;2023-10-08T03:34:38;20.80;57.30
32753;DHT22;19121;52.428;10.816;2023-10-08T03:37:07;20.80;57.40
32753;DHT22;19121;52.428;10.816;2023-10-08T03:39:33;20.80;57.30
32753;DHT22;19121;52.428;10.816;2023-10-08T03:42:19;20.80;57.40
32753;DHT22;19121;52.428;10.816;2023-10-08T03:44:46;20.80;57.40
32753;DHT22;19121;52.428;10.816;2023-10-08T03:47:16;20.80;57.40
32753;DHT22;19121;52.428;10.816;2023-10-08T03:49:44;20.80;57.40
32753;DHT22;19121;52.428;10.816;2023-10-08T03:52:11;20.80;57.40
32753;DHT22;19121;52.428;10.816;2023-10-08T03:54:38;20.80;57.30
32753;DHT22;19121;52.428;10.816;2023-10-08T03:57:08;20.80;57.40
32753;DHT22;19121;52.428;10.816;2023-10-08T03:59:40;20.80;57.40
32753;DHT22;19121;52.428;10.816;2023-10-08T04:02:06;20.80;57.40
32753;DHT22;19121;52.428;10.816;2023-10-08T04:04:58;20.80;57.40
32753;DHT22;19121;52.428;10.816;2023-10-08T04:07:24;20.80;57.40
32753;DHT22;19121;52.428;10.816;2023-10-08T04:09:59;20.70;57.30
32753;DHT22;19121;52.428;10.816;2023-10-08T04:12:51;20.70;57.30
32753;DHT22;19121;52.428;10.816;2023-10-08T04:15:18;20.70;57.30
32753;DHT22;19121;52.428;10.816;2023-10-08T04:17:44;20.70;57.40
32753;DHT22;19121;52.428;10.816;2023-10-08T04:20:10;20.70;57.40
32753;DHT22;19121;52.428;10.816;2023-10-08T04:22:56;20.70;57.40
32753;DHT22;19121;52.428;10.816;2023-10-08T04:25:28;20.70;57.40
32753;DHT22;19121;52.428;10.816;2023-10-08T04:27:54;20.70;57.40
32753;DHT22;19121;52.428;10.816;2023-10-08T04:30:19;20.70;58.00
32753;DHT22;19121;52.428;10.816;2023-10-08T04:32:48;20.70;57.40
32753;DHT22;19121;52.428;10.816;2023-10-08T04:35:18;20.70;57.40
32753;DHT22;19121;52.428;10.816;2023-10-08T04:37:44;20.70;57.40
32753;DHT22;19121;52.428;10.816;2023-10-08T04:40:10;20.70;57.40
32753;DHT22;19121;52.428;10.816;2023-10-08T04:42:41;20.70;57.40
32753;DHT22;19121;52.428;10.816;2023-10-08T04:45:10;20.70;57.40
32753;DHT22;19121;52.428;10.816;2023-10-08T04:47:39;20.70;57.40
32753;DHT22;19121;52.428;10.816;2023-10-08T04:50:10;20.70;57.40
32753;DHT22;19121;52.428;10.816;2023-10-08T04:52:41;20.70;57.40
32753;DHT22;19121;52.428;10.816;2023-10-08T04:55:26;20.70;57.40
32753;DHT22;19121;52.428;10.816;2023-10-08T04:57:55;20.70;57.40
32753;DHT22;19121;52.428;10.816;2023-10-08T05:00:21;20.70;57.40
32753;DHT22;19121;52.428;10.816;2023-10-08T05:03:06;20.70;57.40
32753;DHT22;19121;52.428;10.816;2023-10-08T05:05:39;20.70;57.40
32753;DHT22;19121;52.428;10.816;2023-10-08T05:08:20;20.60;57.30
32753;DHT22;19121;52.428;10.816;2023-10-08T05:10:58;20.60;57.40
32753;DHT22;19121;52.428;10.816;2023-10-08T05:13:40;20.60;57.40
32753;DHT22;19121;52.428;10.816;2023-10-08T05:16:21;20.70;57.40
32753;DHT22;19121;52.428;10.816;2023-10-08T05:19:01;20.70;57.40
32753;DHT22;19121;52.428;10.816;2023-10-08T05:21:50;20.60;57.40
32753;DHT22;19121;52.428;10.816;2023-10-08T05:24:27;20.60;57.40
32753;DHT22;19121;52.428;10.816;2023-10-08T05:26:53;20.60;57.40
32753;DHT22;19121;52.428;10.816;2023-10-08T05:29:38;20.60;57.40
32753;DHT22;19121;52.428;10.816;2023-10-08T05:32:30;20.60;57.40
32753;DHT22;19121;52.428;10.816;2023-10-08T05:35:04;20.60;57.30
32753;DHT22;19121;52.428;10.816;2023-10-08T05:37:48;20.60;57.40
32753;DHT22;19121;52.428;10.816;2023-10-08T05:40:17;20.60;57.40
32753;DHT22;19121;52.428;10.816;2023-10-08T05:43:08;20.60;57.40
32753;DHT22;19121;52.428;10.816;2023-10-08T05:45:48;20.60;57.40
32753;DHT22;19121;52.428;10.816;2023-10-08T05:48:33;20.60;57.40
32753;DHT22;19121;52.428;10.816;2023-10-08T05:51:10;20.60;57.50
32753;DHT22;19121;52.428;10.816;2023-10-08T05:53:49;20.60;57.50
32753;DHT22;19121;52.428;10.816;2023-10-08T05:56:15;20.60;57.50
32753;DHT22;19121;52.428;10.816;2023-10-08T05:58:53;20.60;57.50
32753;DHT22;19121;52.428;10.816;2023-10-08T06:01:42;20.60;57.50
32753;DHT22;19121;52.428;10.816;2023-10-08T06:04:11;20.60;57.50
32753;DHT22;19121;52.428;10.816;2023-10-08T06:06:55;20.50;57.50
32753;DHT22;19121;52.428;10.816;2023-10-08T06:09:38;20.60;57.50
32753;DHT22;19121;52.428;10.816;2023-10-08T06:12:05;20.60;57.50
32753;DHT22;19121;52.428;10.816;2023-10-08T06:14:36;20.60;57.50
32753;DHT22;19121;52.428;10.816;2023-10-08T06:17:18;20.50;57.50
32753;DHT22;19121;52.428;10.816;2023-10-08T06:20:02;20.50;57.50
32753;DHT22;19121;52.428;10.816;2023-10-08T06:22:42;20.60;57.50
32753;DHT22;19121;52.428;10.816;2023-10-08T06:25:07;20.60;57.60
32753;DHT22;19121;52.428;10.816;2023-10-08T06:27:43;20.50;57.50
32753;DHT22;19121;52.428;10.816;2023-10-08T06:30:11;20.50;57.50
32753;DHT22;19121;52.428;10.816;2023-10-08T06:32:42;20.50;57.50
32753;DHT22;19121;52.428;10.816;2023-10-08T06:35:09;20.50;57.50
32753;DHT22;19121;52.428;10.816;2023-10-08T06:37:45;20.60;57.60
32753;DHT22;19121;52.428;10.816;2023-10-08T06:40:11;20.50;57.50
32753;DHT22;19121;52.428;10.816;2023-10-08T06:42:56;20.50;57.60
32753;DHT22;19121;52.428;10.816;2023-10-08T06:45:22;20.50;57.60
32753;DHT22;19121;52.428;10.816;2023-10-08T06:47:48;20.60;57.60
32753;DHT22;19121;52.428;10.816;2023-10-08T06:50:15;20.50;57.60
32753;DHT22;19121;52.428;10.816;2023-10-08T06:52:40;20.50;57.60
32753;DHT22;19121;52.428;10.816;2023-10-08T06:55:09;20.50;57.60
32753;DHT22;19121;52.428;10.816;2023-10-08T06:57:37;20.50;57.60
32753;DHT22;19121;52.428;10.816;2023-10-08T07:00:04;20.50;57.60
32753;DHT22;19121;52.428;10.816;2023-10-08T07:02:35;20.50;57.60
32753;DHT22;19121;52.428;10.816;2023-10-08T07:05:01;20.60;57.70
32753;DHT22;19121;52.428;10.816;2023-10-08T07:07:34;20.60;57.70
32753;DHT22;19121;52.428;10.816;2023-10-08T07:10:05;20.60;57.70
32753;DHT22;19121;52.428;10.816;2023-10-08T07:12:30;20.60;57.70
32753;DHT22;19121;52.428;10.816;2023-10-08T07:15:00;20.60;57.80
32753;DHT22;19121;52.428;10.816;2023-10-08T07:17:27;20.60;57.70
32753;DHT22;19121;52.428;10.816;2023-10-08T07:20:02;20.60;57.70
32753;DHT22;19121;52.428;10.816;2023-10-08T07:22:38;20.60;57.70
32753;DHT22;19121;52.428;10.816;2023-10-08T07:25:04;20.60;57.80
32753;DHT22;19121;52.428;10.816;2023-10-08T07:27:34;20.60;57.80
32753;DHT22;19121;52.428;10.816;2023-10-08T07:30:03;20.60;57.80
32753;DHT22;19121;52.428;10.816;2023-10-08T07:32:35;20.60;57.80
32753;DHT22;19121;52.428;10.816;2023-10-08T07:35:04;20.60;57.80
32753;DHT22;19121;52.428;10.816;2023-10-08T07:37:44;20.60;57.80
32753;DHT22;19121;52.428;10.816;2023-10-08T07:40:10;20.60;57.80
32753;DHT22;19121;52.428;10.816;2023-10-08T07:42:37;20.60;57.80
32753;DHT22;19121;52.428;10.816;2023-10-08T07:45:02;20.60;57.80
32753;DHT22;19121;52.428;10.816;2023-10-08T07:47:30;20.60;57.80
32753;DHT22;19121;52.428;10.816;2023-10-08T07:49:55;20.60;57.90
32753;DHT22;19121;52.428;10.816;2023-10-08T07:52:21;20.60;57.80
32753;DHT22;19121;52.428;10.816;2023-10-08T07:54:46;20.70;57.90
32753;DHT22;19121;52.428;10.816;2023-10-08T07:57:12;20.70;58.00
32753;DHT22;19121;52.428;10.816;2023-10-08T07:59:43;20.70;58.00
32753;DHT22;19121;52.428;10.816;2023-10-08T08:02:12;20.70;58.10
32753;DHT22;19121;52.428;10.816;2023-10-08T08:04:38;20.70;58.20
32753;DHT22;19121;52.428;10.816;2023-10-08T08:07:05;20.70;58.20
32753;DHT22;19121;52.428;10.816;2023-10-08T08:09:31;20.70;58.20
32753;DHT22;19121;52.428;10.816;2023-10-08T08:12:06;20.80;58.80
32753;DHT22;19121;52.428;10.816;2023-10-08T08:14:39;20.80;58.20
32753;DHT22;19121;52.428;10.816;2023-10-08T08:17:07;20.80;58.10
32753;DHT22;19121;52.428;10.816;2023-10-08T08:19:42;20.80;58.10
32753;DHT22;19121;52.428;10.816;2023-10-08T08:22:10;20.90;58.10
32753;DHT22;19121;52.428;10.816;2023-10-08T08:24:43;20.90;58.10
32753;DHT22;19121;52.428;10.816;2023-10-08T08:27:13;20.90;58.10
32753;DHT22;19121;52.428;10.816;2023-10-08T08:29:52;20.90;58.00
32753;DHT22;19121;52.428;10.816;2023-10-08T08:32:21;20.90;58.00
32753;DHT22;19121;52.428;10.816;2023-10-08T08:34:47;21.00;58.00
32753;DHT22;19121;52.428;10.816;2023-10-08T08:37:18;21.00;58.00
32753;DHT22;19121;52.428;10.816;2023-10-08T08:39:44;20.90;57.90
32753;DHT22;19121;52.428;10.816;2023-10-08T08:42:11;21.00;58.00
32753;DHT22;19121;52.428;10.816;2023-10-08T08:44:37;21.00;58.00
32753;DHT22;19121;52.428;10.816;2023-10-08T08:47:09;21.00;58.00
32753;DHT22;19121;52.428;10.816;2023-10-08T08:49:39;21.00;57.90
32753;DHT22;19121;52.428;10.816;2023-10-08T08:52:05;21.00;57.90
32753;DHT22;19121;52.428;10.816;2023-10-08T08:54:31;21.00;57.90
32753;DHT22;19121;52.428;10.816;2023-10-08T08:56:57;21.00;57.90
32753;DHT22;19121;52.428;10.816;2023-10-08T08:59:25;21.00;57.90
32753;DHT22;19121;52.428;10.816;2023-10-08T09:01:51;21.10;58.00
32753;DHT22;19121;52.428;10.816;2023-10-08T09:04:16;21.10;57.90
32753;DHT22;19121;52.428;10.816;2023-10-08T09:06:53;21.10;57.90
32753;DHT22;19121;52.428;10.816;2023-10-08T09:09:19;21.10;57.90
32753;DHT22;19121;52.428;10.816;2023-10-08T09:11:48;21.10;57.90
32753;DHT22;19121;52.428;10.816;2023-10-08T09:14:26;21.10;57.90
32753;DHT22;19121;52.428;10.816;2023-10-08T09:16:52;21.10;57.90
32753;DHT22;19121;52.428;10.816;2023-10-08T09:19:19;21.20;57.90
32753;DHT22;19121;52.428;10.816;2023-10-08T09:22:06;21.20;58.00
32753;DHT22;19121;52.428;10.816;2023-10-08T09:24:36;21.20;57.90
32753;DHT22;19121;52.428;10.816;2023-10-08T09:27:05;21.20;57.90
32753;DHT22;19121;52.428;10.816;2023-10-08T09:29:32;21.20;57.80
32753;DHT22;19121;52.428;10.816;2023-10-08T09:31:58;21.30;57.90
32753;DHT22;19121;52.428;10.816;2023-10-08T09:34:25;21.30;57.80
32753;DHT22;19121;52.428;10.816;2023-10-08T09:36:51;21.30;57.80
32753;DHT22;19121;52.428;10.816;2023-10-08T09:39:18;21.30;57.70
32753;DHT22;19121;52.428;10.816;2023-10-08T09:41:57;21.40;57.70
32753;DHT22;19121;52.428;10.816;2023-10-08T09:44:23;21.40;57.70
32753;DHT22;19121;52.428;10.816;2023-10-08T09:46:53;21.40;57.70
32753;DHT22;19121;52.428;10.816;2023-10-08T09:49:24;21.40;57.70
32753;DHT22;19121;52.428;10.816;2023-10-08T09:51:54;21.50;58.30
32753;DHT22;19121;52.428;10.816;2023-10-08T09:54:22;21.50;57.70
32753;DHT22;19121;52.428;10.816;2023-10-08T09:56:50;21.50;57.70
32753;DHT22;19121;52.428;10.816;2023-10-08T09:59:15;21.50;57.60
32753;DHT22;19121;52.428;10.816;2023-10-08T10:01:42;21.50;57.60
32753;DHT22;19121;52.428;10.816;2023-10-08T10:04:08;21.50;57.50
32753;DHT22;19121;52.428;10.816;2023-10-08T10:06:34;21.50;57.50
32753;DHT22;19121;52.428;10.816;2023-10-08T10:09:01;21.60;57.50
32753;DHT22;19121;52.428;10.816;2023-10-08T10:11:28;21.60;57.40
32753;DHT22;19121;52.428;10.816;2023-10-08T10:13:57;21.60;57.40
32753;DHT22;19121;52.428;10.816;2023-10-08T10:16:25;21.60;57.40
32753;DHT22;19121;52.428;10.816;2023-10-08T10:18:54;21.60;57.40
32753;DHT22;19121;52.428;10.816;2023-10-08T10:21:31;21.60;57.30
32753;DHT22;19121;52.428;10.816;2023-10-08T10:23:59;21.70;57.40
32753;DHT22;19121;52.428;10.816;2023-10-08T10:31:41;21.70;57.30
32753;DHT22;19121;52.428;10.816;2023-10-08T10:34:10;21.70;57.30
32753;DHT22;19121;52.428;10.816;2023-10-08T10:36:38;21.70;57.30
32753;DHT22;19121;52.428;10.816;2023-10-08T10:39:05;21.70;57.20
32753;DHT22;19121;52.428;10.816;2023-10-08T10:41:51;21.70;57.30
32753;DHT22;19121;52.428;10.816;2023-10-08T10:44:25;21.70;57.20
32753;DHT22;19121;52.428;10.816;2023-10-08T10:46:50;21.70;57.20
32753;DHT22;19121;52.428;10.816;2023-10-08T10:49:16;21.80;57.20
32753;DHT22;19121;52.428;10.816;2023-10-08T10:51:42;21.80;57.30
32753;DHT22;19121;52.428;10.816;2023-10-08T10:54:07;21.80;57.30
32753;DHT22;19121;52.428;10.816;2023-10-08T10:56:34;21.80;57.30
32753;DHT22;19121;52.428;10.816;2023-10-08T10:59:05;21.80;57.20
32753;DHT22;19121;52.428;10.816;2023-10-08T11:01:44;21.80;57.20
32753;DHT22;19121;52.428;10.816;2023-10-08T11:04:12;21.80;57.20
32753;DHT22;19121;52.428;10.816;2023-10-08T11:06:42;21.80;57.10
32753;DHT22;19121;52.428;10.816;2023-10-08T11:09:09;21.80;57.20
32753;DHT22;19121;52.428;10.816;2023-10-08T11:11:40;21.80;57.10
32753;DHT22;19121;52.428;10.816;2023-10-08T11:14:10;21.80;57.10
32753;DHT22;19121;52.428;10.816;2023-10-08T11:16:42;21.80;57.10
32753;DHT22;19121;52.428;10.816;2023-10-08T11:19:08;21.90;57.10
32753;DHT22;19121;52.428;10.816;2023-10-08T11:21:49;21.90;57.10
32753;DHT22;19121;52.428;10.816;2023-10-08T11:24:26;21.90;57.10
32753;DHT22;19121;52.428;10.816;2023-10-08T11:26:52;21.90;57.10
32753;DHT22;19121;52.428;10.816;2023-10-08T11:29:41;21.90;57.10
32753;DHT22;19121;52.428;10.816;2023-10-08T11:32:06;21.90;57.10
32753;DHT22;19121;52.428;10.816;2023-10-08T11:34:38;21.90;57.00
32753;DHT22;19121;52.428;10.816;2023-10-08T11:37:05;21.90;57.00
32753;DHT22;19121;52.428;10.816;2023-10-08T11:39:48;21.90;57.60
32753;DHT22;19121;52.428;10.816;2023-10-08T11:42:14;21.90;56.90
32753;DHT22;19121;52.428;10.816;2023-10-08T11:44:57;21.90;56.90
32753;DHT22;19121;52.428;10.816;2023-10-08T11:47:25;21.90;56.90
32753;DHT22;19121;52.428;10.816;2023-10-08T11:49:56;21.90;56.90
32753;DHT22;19121;52.428;10.816;2023-10-08T11:52:35;21.90;56.80
32753;DHT22;19121;52.428;10.816;2023-10-08T11:55:06;21.90;56.80
32753;DHT22;19121;52.428;10.816;2023-10-08T11:57:32;21.90;56.80
32753;DHT22;19121;52.428;10.816;2023-10-08T12:00:01;21.90;56.80
32753;DHT22;19121;52.428;10.816;2023-10-08T12:02:42;21.90;56.80
32753;DHT22;19121;52.428;10.816;2023-10-08T12:05:09;21.90;56.80
32753;DHT22;19121;52.428;10.816;2023-10-08T12:07:46;21.90;56.80
32753;DHT22;19121;52.428;10.816;2023-10-08T12:10:12;21.90;56.70
32753;DHT22;19121;52.428;10.816;2023-10-08T12:12:38;21.90;56.70
32753;DHT22;19121;52.428;10.816;2023-10-08T12:15:04;21.90;56.70
32753;DHT22;19121;52.428;10.816;2023-10-08T12:17:29;21.90;56.70
32753;DHT22;19121;52.428;10.816;2023-10-08T12:20:07;21.90;56.70
32753;DHT22;19121;52.428;10.816;2023-10-08T12:22:51;21.90;56.70
32753;DHT22;19121;52.428;10.816;2023-10-08T12:25:16;21.90;56.80
32753;DHT22;19121;52.428;10.816;2023-10-08T12:27:41;21.90;56.80
32753;DHT22;19121;52.428;10.816;2023-10-08T12:30:07;21.90;56.80
32753;DHT22;19121;52.428;10.816;2023-10-08T12:32:39;21.90;56.70
32753;DHT22;19121;52.428;10.816;2023-10-08T12:35:08;21.90;56.70
32753;DHT22;19121;52.428;10.816;2023-10-08T12:37:41;21.90;56.70
32753;DHT22;19121;52.428;10.816;2023-10-08T12:40:09;21.90;56.80
32753;DHT22;19121;52.428;10.816;2023-10-08T12:42:51;21.90;56.70
32753;DHT22;19121;52.428;10.816;2023-10-08T12:45:16;21.90;56.70
32753;DHT22;19121;52.428;10.816;2023-10-08T12:47:49;21.90;56.70
32753;DHT22;19121;52.428;10.816;2023-10-08T12:50:15;21.90;56.70
32753;DHT22;19121;52.428;10.816;2023-10-08T12:52:44;21.90;56.60
32753;DHT22;19121;52.428;10.816;2023-10-08T12:55:21;21.90;56.70
32753;DHT22;19121;52.428;10.816;2023-10-08T12:57:52;21.90;56.60
32753;DHT22;19121;52.428;10.816;2023-10-08T13:00:22;21.90;56.60
32753;DHT22;19121;52.428;10.816;2023-10-08T13:02:49;21.90;56.60
32753;DHT22;19121;52.428;10.816;2023-10-08T13:05:19;21.90;56.60
32753;DHT22;19121;52.428;10.816;2023-10-08T13:07:52;21.90;56.60
32753;DHT22;19121;52.428;10.816;2023-10-08T13:10:19;21.90;56.50
32753;DHT22;19121;52.428;10.816;2023-10-08T13:12:47;21.90;56.50
32753;DHT22;19121;52.428;10.816;2023-10-08T13:15:13;21.90;56.50
32753;DHT22;19121;52.428;10.816;2023-10-08T13:17:38;21.90;56.50
32753;DHT22;19121;52.428;10.816;2023-10-08T13:20:10;21.90;56.50
32753;DHT22;19121;52.428;10.816;2023-10-08T13:22:39;21.90;56.50
32753;DHT22;19121;52.428;10.816;2023-10-08T13:25:05;21.90;56.50
32753;DHT22;19121;52.428;10.816;2023-10-08T13:27:31;21.90;56.50
32753;DHT22;19121;52.428;10.816;2023-10-08T13:29:57;21.90;56.40
32753;DHT22;19121;52.428;10.816;2023-10-08T13:32:24;21.90;56.40
32753;DHT22;19121;52.428;10.816;2023-10-08T13:34:49;21.90;56.40
32753;DHT22;19121;52.428;10.816;2023-10-08T13:37:15;21.90;56.40
32753;DHT22;19121;52.428;10.816;2023-10-08T13:39:41;21.90;56.40
32753;DHT22;19121;52.428;10.816;2023-10-08T13:42:06;21.90;56.40
32753;DHT22;19121;52.428;10.816;2023-10-08T13:44:32;21.90;56.30
32753;DHT22;19121;52.428;10.816;2023-10-08T13:46:57;21.90;56.30
32753;DHT22;19121;52.428;10.816;2023-10-08T13:49:25;21.90;56.40
32753;DHT22;19121;52.428;10.816;2023-10-08T13:51:52;21.90;56.40
32753;DHT22;19121;52.428;10.816;2023-10-08T13:54:21;21.90;56.40
32753;DHT22;19121;52.428;10.816;2023-10-08T13:56:47;21.90;56.40
32753;DHT22;19121;52.428;10.816;2023-10-08T13:59:15;21.90;56.50
32753;DHT22;19121;52.428;10.816;2023-10-08T14:01:41;21.90;56.40
32753;DHT22;19121;52.428;10.816;2023-10-08T14:04:16;21.90;56.30
32753;DHT22;19121;52.428;10.816;2023-10-08T14:06:44;21.90;56.40
32753;DHT22;19121;52.428;10.816;2023-10-08T14:09:17;21.90;56.40
32753;DHT22;19121;52.428;10.816;2023-10-08T14:11:56;21.80;56.30
32753;DHT22;19121;52.428;10.816;2023-10-08T14:14:22;21.90;56.30
32753;DHT22;19121;52.428;10.816;2023-10-08T14:16:49;21.90;56.30
32753;DHT22;19121;52.428;10.816;2023-10-08T14:19:19;21.90;56.40
32753;DHT22;19121;52.428;10.816;2023-10-08T14:21:53;21.90;56.30
32753;DHT22;19121;52.428;10.816;2023-10-08T14:24:25;21.90;56.30
32753;DHT22;19121;52.428;10.816;2023-10-08T14:26:53;21.90;56.30
32753;DHT22;19121;52.428;10.816;2023-10-08T14:29:22;21.90;56.30
32753;DHT22;19121;52.428;10.816;2023-10-08T14:31:49;21.90;56.30
32753;DHT22;19121;52.428;10.816;2023-10-08T14:34:15;21.90;56.20
32753;DHT22;19121;52.428;10.816;2023-10-08T14:36:41;21.90;56.30
32753;DHT22;19121;52.428;10.816;2023-10-08T14:39:25;21.90;56.30
32753;DHT22;19121;52.428;10.816;2023-10-08T14:42:09;21.80;56.20
32753;DHT22;19121;52.428;10.816;2023-10-08T14:44:53;21.90;56.30
32753;DHT22;19121;52.428;10.816;2023-10-08T14:47:19;21.80;56.20
32753;DHT22;19121;52.428;10.816;2023-10-08T14:49:44;21.80;56.20
32753;DHT22;19121;52.428;10.816;2023-10-08T14:52:11;21.80;56.20
32753;DHT22;19121;52.428;10.816;2023-10-08T14:54:36;21.80;56.20
32753;DHT22;19121;52.428;10.816;2023-10-08T14:57:03;21.90;56.20
32753;DHT22;19121;52.428;10.816;2023-10-08T14:59:31;21.80;56.20
32753;DHT22;19121;52.428;10.816;2023-10-08T15:01:56;21.90;56.20
32753;DHT22;19121;52.428;10.816;2023-10-08T15:04:24;21.80;56.10
32753;DHT22;19121;52.428;10.816;2023-10-08T15:06:51;21.90;56.20
32753;DHT22;19121;52.428;10.816;2023-10-08T15:09:17;21.90;56.20
32753;DHT22;19121;52.428;10.816;2023-10-08T15:11:52;21.90;56.20
32753;DHT22;19121;52.428;10.816;2023-10-08T15:14:18;21.90;56.20
32753;DHT22;19121;52.428;10.816;2023-10-08T15:16:45;21.90;56.20
32753;DHT22;19121;52.428;10.816;2023-10-08T15:19:20;21.90;56.20
32753;DHT22;19121;52.428;10.816;2023-10-08T15:21:47;21.90;56.40
32753;DHT22;19121;52.428;10.816;2023-10-08T15:24:16;21.90;56.60
32753;DHT22;19121;52.428;10.816;2023-10-08T15:26:41;21.80;56.60
32753;DHT22;19121;52.428;10.816;2023-10-08T15:29:07;21.90;56.60
32753;DHT22;19121;52.428;10.816;2023-10-08T15:31:32;21.90;56.80
32753;DHT22;19121;52.428;10.816;2023-10-08T15:33:58;21.80;56.90
32753;DHT22;19121;52.428;10.816;2023-10-08T15:36:24;21.90;57.00
32753;DHT22;19121;52.428;10.816;2023-10-08T15:38:51;21.80;56.90